Terminal Aerodrome Forecast
Issued by NWS Wilmington, NC

Current Version | Previous Version | Text Only | Print | Product List | Glossary On
Versions: 1 2 3 4 5 6 7 8 9 10 11 12 13 14
000
FTUS42 KILM 241120
TAFFLO
TAF
KFLO 241120Z 2412/2512 00000KT 4SM BR SKC
     FM241400 11003KT P6SM SCT050
     FM242100 14006KT P6SM FEW250
     FM250000 VRB04KT P6SM SKC
     FM250800 00000KT 1/2SM FG VV002=

USA.gov is the U.S. government's official web portal to all federal, state and local government web resources and services.